sensor_id;sensor_type;location;lat;lon;timestamp;P1;durP1;ratioP1;P2;durP2;ratioP2
1991;SDS011;997;48.448;8.924;2023-03-01T10:17:37;20.83;;;17.40;;
1991;SDS011;997;48.448;8.924;2023-03-01T10:22:47;18.33;;;16.40;;
1991;SDS011;997;48.448;8.924;2023-03-01T10:28:02;21.70;;;18.33;;
1991;SDS011;997;48.448;8.924;2023-03-01T10:30:36;24.70;;;18.97;;
1991;SDS011;997;48.448;8.924;2023-03-01T10:33:23;19.60;;;17.47;;
1991;SDS011;997;48.448;8.924;2023-03-01T10:35:51;21.20;;;17.53;;
1991;SDS011;997;48.448;8.924;2023-03-01T10:38:17;18.03;;;16.17;;
1991;SDS011;997;48.448;8.924;2023-03-01T10:43:27;22.47;;;17.40;;
1991;SDS011;997;48.448;8.924;2023-03-01T10:51:42;19.37;;;16.93;;
1991;SDS011;997;48.448;8.924;2023-03-01T10:54:27;20.70;;;18.40;;
1991;SDS011;997;48.448;8.924;2023-03-01T10:57:02;19.80;;;17.67;;
1991;SDS011;997;48.448;8.924;2023-03-01T10:59:33;20.00;;;15.90;;
1991;SDS011;997;48.448;8.924;2023-03-01T11:07:53;22.10;;;18.00;;
1991;SDS011;997;48.448;8.924;2023-03-01T11:10:25;20.10;;;16.33;;
1991;SDS011;997;48.448;8.924;2023-03-01T11:12:53;21.83;;;17.10;;
1991;SDS011;997;48.448;8.924;2023-03-01T11:15:29;22.83;;;17.93;;
1991;SDS011;997;48.448;8.924;2023-03-01T11:17:55;18.90;;;15.47;;
1991;SDS011;997;48.448;8.924;2023-03-01T11:20:26;19.63;;;16.10;;
1991;SDS011;997;48.448;8.924;2023-03-01T11:23:02;19.03;;;17.03;;
1991;SDS011;997;48.448;8.924;2023-03-01T11:25:34;20.63;;;18.53;;
1991;SDS011;997;48.448;8.924;2023-03-01T11:28:03;22.50;;;16.47;;
1991;SDS011;997;48.448;8.924;2023-03-01T11:30:32;18.30;;;16.50;;
1991;SDS011;997;48.448;8.924;2023-03-01T11:35:53;24.67;;;17.70;;
1991;SDS011;997;48.448;8.924;2023-03-01T11:38:26;17.47;;;15.77;;
1991;SDS011;997;48.448;8.924;2023-03-01T11:43:42;18.30;;;15.77;;
1991;SDS011;997;48.448;8.924;2023-03-01T11:49:30;17.10;;;15.30;;
1991;SDS011;997;48.448;8.924;2023-03-01T11:52:23;18.90;;;16.40;;
1991;SDS011;997;48.448;8.924;2023-03-01T11:55:45;17.50;;;15.10;;
1991;SDS011;997;48.448;8.924;2023-03-01T11:58:06;18.90;;;16.90;;
1991;SDS011;997;48.448;8.924;2023-03-01T12:08:59;18.93;;;15.50;;
1991;SDS011;997;48.448;8.924;2023-03-01T12:15:09;17.10;;;15.00;;
1991;SDS011;997;48.448;8.924;2023-03-01T12:28:48;19.73;;;15.10;;
1991;SDS011;997;48.448;8.924;2023-03-01T12:39:34;16.00;;;14.33;;
1991;SDS011;997;48.448;8.924;2023-03-01T12:50:47;17.43;;;15.63;;
1991;SDS011;997;48.448;8.924;2023-03-01T12:53:26;18.00;;;16.07;;
1991;SDS011;997;48.448;8.924;2023-03-01T12:55:58;16.07;;;14.40;;
1991;SDS011;997;48.448;8.924;2023-03-01T12:58:39;15.57;;;13.40;;
1991;SDS011;997;48.448;8.924;2023-03-01T13:11:57;16.10;;;14.30;;
1991;SDS011;997;48.448;8.924;2023-03-01T13:16:49;15.97;;;14.33;;
1991;SDS011;997;48.448;8.924;2023-03-01T13:19:20;18.80;;;14.67;;
1991;SDS011;997;48.448;8.924;2023-03-01T13:21:48;15.83;;;14.33;;
1991;SDS011;997;48.448;8.924;2023-03-01T13:24:28;16.07;;;14.33;;
1991;SDS011;997;48.448;8.924;2023-03-01T13:37:42;15.10;;;13.50;;
1991;SDS011;997;48.448;8.924;2023-03-01T13:42:43;15.13;;;13.60;;
1991;SDS011;997;48.448;8.924;2023-03-01T13:45:15;14.13;;;12.63;;
1991;SDS011;997;48.448;8.924;2023-03-01T13:47:42;13.93;;;12.53;;
1991;SDS011;997;48.448;8.924;2023-03-01T13:50:16;14.73;;;11.97;;
1991;SDS011;997;48.448;8.924;2023-03-01T13:52:50;14.90;;;13.50;;
1991;SDS011;997;48.448;8.924;2023-03-01T13:55:21;14.90;;;12.57;;
1991;SDS011;997;48.448;8.924;2023-03-01T13:57:49;14.77;;;13.27;;
1991;SDS011;997;48.448;8.924;2023-03-01T14:00:39;13.00;;;11.70;;
1991;SDS011;997;48.448;8.924;2023-03-01T14:03:08;14.27;;;12.77;;
1991;SDS011;997;48.448;8.924;2023-03-01T14:05:36;17.53;;;13.30;;
1991;SDS011;997;48.448;8.924;2023-03-01T14:08:03;16.33;;;12.70;;
1991;SDS011;997;48.448;8.924;2023-03-01T14:10:40;14.30;;;12.90;;
1991;SDS011;997;48.448;8.924;2023-03-01T14:13:29;14.57;;;13.03;;
1991;SDS011;997;48.448;8.924;2023-03-01T14:18:23;16.37;;;12.90;;
1991;SDS011;997;48.448;8.924;2023-03-01T14:20:58;16.37;;;14.67;;
1991;SDS011;997;48.448;8.924;2023-03-01T14:23:24;16.17;;;14.47;;
1991;SDS011;997;48.448;8.924;2023-03-01T14:25:53;15.23;;;13.57;;
1991;SDS011;997;48.448;8.924;2023-03-01T14:28:21;16.57;;;14.93;;
1991;SDS011;997;48.448;8.924;2023-03-01T14:30:54;15.53;;;14.00;;
1991;SDS011;997;48.448;8.924;2023-03-01T14:41:14;14.63;;;13.10;;
1991;SDS011;997;48.448;8.924;2023-03-01T14:43:43;14.83;;;13.43;;
1991;SDS011;997;48.448;8.924;2023-03-01T14:48:48;15.10;;;13.53;;
1991;SDS011;997;48.448;8.924;2023-03-01T14:51:19;14.40;;;13.00;;
1991;SDS011;997;48.448;8.924;2023-03-01T14:53:44;16.00;;;14.23;;
1991;SDS011;997;48.448;8.924;2023-03-01T14:56:14;16.33;;;14.70;;
1991;SDS011;997;48.448;8.924;2023-03-01T14:58:44;16.03;;;13.00;;
1991;SDS011;997;48.448;8.924;2023-03-01T15:01:13;17.20;;;13.83;;
1991;SDS011;997;48.448;8.924;2023-03-01T15:03:44;15.70;;;14.17;;
1991;SDS011;997;48.448;8.924;2023-03-01T15:06:15;15.93;;;14.43;;
1991;SDS011;997;48.448;8.924;2023-03-01T15:08:50;16.17;;;14.13;;
1991;SDS011;997;48.448;8.924;2023-03-01T15:11:22;16.97;;;15.17;;
1991;SDS011;997;48.448;8.924;2023-03-01T15:13:50;15.20;;;13.70;;
1991;SDS011;997;48.448;8.924;2023-03-01T15:16:18;16.50;;;14.87;;
1991;SDS011;997;48.448;8.924;2023-03-01T15:18:48;17.77;;;15.20;;
1991;SDS011;997;48.448;8.924;2023-03-01T15:21:21;17.13;;;13.90;;
1991;SDS011;997;48.448;8.924;2023-03-01T15:24:37;17.70;;;12.80;;
1991;SDS011;997;48.448;8.924;2023-03-01T15:26:45;15.83;;;13.60;;
1991;SDS011;997;48.448;8.924;2023-03-01T15:29:21;15.27;;;12.77;;
1991;SDS011;997;48.448;8.924;2023-03-01T15:32:40;15.37;;;13.90;;
1991;SDS011;997;48.448;8.924;2023-03-01T15:34:57;15.27;;;13.77;;
1991;SDS011;997;48.448;8.924;2023-03-01T15:37:41;15.63;;;14.23;;
1991;SDS011;997;48.448;8.924;2023-03-01T15:42:44;15.20;;;13.80;;
1991;SDS011;997;48.448;8.924;2023-03-01T15:45:19;14.60;;;12.80;;
1991;SDS011;997;48.448;8.924;2023-03-01T15:47:47;14.60;;;13.20;;
1991;SDS011;997;48.448;8.924;2023-03-01T15:50:16;14.87;;;13.40;;
1991;SDS011;997;48.448;8.924;2023-03-01T15:52:45;14.20;;;12.77;;
1991;SDS011;997;48.448;8.924;2023-03-01T15:55:19;14.80;;;13.27;;
1991;SDS011;997;48.448;8.924;2023-03-01T15:58:00;17.17;;;14.07;;
1991;SDS011;997;48.448;8.924;2023-03-01T16:00:42;14.83;;;12.63;;
1991;SDS011;997;48.448;8.924;2023-03-01T16:03:08;15.20;;;12.43;;
1991;SDS011;997;48.448;8.924;2023-03-01T16:05:36;17.00;;;13.97;;
1991;SDS011;997;48.448;8.924;2023-03-01T16:08:04;17.20;;;14.43;;
1991;SDS011;997;48.448;8.924;2023-03-01T16:10:30;15.67;;;13.83;;
1991;SDS011;997;48.448;8.924;2023-03-01T16:12:57;17.97;;;15.33;;
1991;SDS011;997;48.448;8.924;2023-03-01T16:15:25;17.37;;;14.50;;
1991;SDS011;997;48.448;8.924;2023-03-01T16:17:53;19.73;;;15.20;;
1991;SDS011;997;48.448;8.924;2023-03-01T16:20:19;16.23;;;14.60;;
1991;SDS011;997;48.448;8.924;2023-03-01T16:22:45;15.50;;;13.97;;
1991;SDS011;997;48.448;8.924;2023-03-01T16:25:12;15.67;;;13.97;;
